createdAt,value
2018-09-27T00:00:35.122Z,4.50
2018-09-27T00:03:03.454Z,3.97
2018-09-27T00:05:31.348Z,4.17
2018-09-27T00:07:59.246Z,3.73
2018-09-27T00:10:26.945Z,4.07
2018-09-27T00:12:54.973Z,3.63
2018-09-27T00:15:22.755Z,3.87
2018-09-27T00:17:50.381Z,4.10
2018-09-27T00:20:19.471Z,3.83
2018-09-27T00:22:47.136Z,4.27
2018-09-27T00:25:15.139Z,3.60
2018-09-27T00:27:43.955Z,4.27
2018-09-27T00:30:12.262Z,3.93
2018-09-27T00:32:40.278Z,3.70
2018-09-27T00:35:08.159Z,4.87
2018-09-27T00:37:35.856Z,3.90
2018-09-27T00:40:03.733Z,3.77
2018-09-27T00:42:31.491Z,4.67
2018-09-27T00:44:59.784Z,3.67
2018-09-27T00:47:27.566Z,3.83
2018-09-27T00:49:55.346Z,4.00
2018-09-27T00:52:23.135Z,4.00
2018-09-27T00:54:52.292Z,3.97
2018-09-27T00:57:20.432Z,4.23
2018-09-27T00:59:48.299Z,4.30
2018-09-27T01:02:16.983Z,3.53
2018-09-27T01:04:44.831Z,4.17
2018-09-27T01:07:12.798Z,4.33
2018-09-27T01:09:41.209Z,4.27
2018-09-27T01:12:12.667Z,4.17
2018-09-27T01:14:40.678Z,3.83
2018-09-27T01:17:08.884Z,4.23
2018-09-27T01:19:37.093Z,4.27
2018-09-27T01:22:04.770Z,4.20
2018-09-27T01:24:33.868Z,4.43
2018-09-27T01:27:01.521Z,4.67
2018-09-27T01:29:30.088Z,3.80
2018-09-27T01:31:58.009Z,4.07
2018-09-27T01:34:25.712Z,3.73
2018-09-27T01:36:53.651Z,4.77
2018-09-27T01:39:21.577Z,4.10
2018-09-27T01:41:50.074Z,4.53
2018-09-27T01:44:18.032Z,4.83
2018-09-27T01:46:45.842Z,4.30
2018-09-27T01:49:14.597Z,4.57
2018-09-27T01:51:42.306Z,4.90
2018-09-27T01:54:10.103Z,5.50
2018-09-27T01:56:37.901Z,4.83
2018-09-27T01:59:05.713Z,4.97
2018-09-27T02:01:33.571Z,5.20
2018-09-27T02:04:01.667Z,5.00
2018-09-27T02:06:29.498Z,5.13
2018-09-27T02:08:57.398Z,5.50
2018-09-27T02:11:25.348Z,5.30
2018-09-27T02:13:53.211Z,4.97
2018-09-27T02:16:20.872Z,4.63
2018-09-27T02:18:48.824Z,5.77
2018-09-27T02:21:16.502Z,5.10
2018-09-27T02:23:44.435Z,5.80
2018-09-27T02:26:12.651Z,5.70
2018-09-27T02:28:40.934Z,4.67
2018-09-27T02:31:09.211Z,6.03
2018-09-27T02:33:37.717Z,5.97
2018-09-27T02:36:08.017Z,5.67
2018-09-27T02:38:38.998Z,5.87
2018-09-27T02:41:08.013Z,6.40
2018-09-27T02:43:36.056Z,6.03
2018-09-27T02:46:04.749Z,6.30
2018-09-27T02:48:33.142Z,5.87
2018-09-27T02:51:02.671Z,6.17
2018-09-27T02:53:32.103Z,6.53
2018-09-27T02:56:01.363Z,6.33
2018-09-27T02:58:29.593Z,6.22
2018-09-27T03:00:58.217Z,6.43
2018-09-27T03:03:26.789Z,6.30
2018-09-27T03:05:55.103Z,6.90
2018-09-27T03:08:23.076Z,6.87
2018-09-27T03:10:51.417Z,6.90
2018-09-27T03:13:20.493Z,6.70
2018-09-27T03:15:49.854Z,6.97
2018-09-27T03:18:17.989Z,7.07
2018-09-27T03:20:46.335Z,7.77
2018-09-27T03:23:14.523Z,7.80
2018-09-27T03:25:42.520Z,8.13
2018-09-27T03:28:10.379Z,8.33
2018-09-27T03:30:38.677Z,7.83
2018-09-27T03:33:06.516Z,8.00
2018-09-27T03:35:34.467Z,7.90
2018-09-27T03:38:02.519Z,8.03
2018-09-27T03:40:30.318Z,8.03
2018-09-27T03:42:58.053Z,7.55
2018-09-27T03:45:26.239Z,8.17
2018-09-27T03:47:55.389Z,8.00
2018-09-27T03:50:23.278Z,8.57
2018-09-27T03:52:51.230Z,8.80
2018-09-27T03:55:19.156Z,8.90
2018-09-27T03:57:47.174Z,9.27
2018-09-27T04:00:15.316Z,8.63
2018-09-27T04:02:43.720Z,9.20
2018-09-27T04:05:12.311Z,9.27
2018-09-27T04:07:40.295Z,10.00
2018-09-27T04:10:08.335Z,9.50
2018-09-27T04:12:36.704Z,8.47
2018-09-27T04:15:05.121Z,9.40
2018-09-27T04:17:33.461Z,9.10
2018-09-27T04:20:01.544Z,9.70
2018-09-27T04:22:29.713Z,9.63
2018-09-27T04:24:58.394Z,10.17
2018-09-27T04:27:26.724Z,9.83
2018-09-27T04:29:55.015Z,11.17
2018-09-27T04:32:24.419Z,9.97
2018-09-27T04:34:52.561Z,11.50
2018-09-27T04:37:21.609Z,11.03
2018-09-27T04:39:49.618Z,11.83
2018-09-27T04:42:17.923Z,12.37
2018-09-27T04:44:48.914Z,12.20
2018-09-27T04:47:17.148Z,12.77
2018-09-27T04:49:45.145Z,12.47
2018-09-27T04:52:13.656Z,13.27
2018-09-27T04:54:41.957Z,13.77
2018-09-27T04:57:10.173Z,14.80
2018-09-27T04:59:38.886Z,14.33
2018-09-27T05:02:08.136Z,14.87
2018-09-27T05:04:38.129Z,14.30
2018-09-27T05:07:06.777Z,15.07
2018-09-27T05:09:35.181Z,14.50
2018-09-27T05:12:04.478Z,14.57
2018-09-27T05:14:36.289Z,15.73
2018-09-27T05:17:04.508Z,15.13
2018-09-27T05:22:33.861Z,16.02
2018-09-27T05:25:03.261Z,15.93
2018-09-27T06:12:32.575Z,17.53
2018-09-27T06:15:01.475Z,17.20
2018-09-27T06:17:29.649Z,17.80
2018-09-27T06:19:58.525Z,16.73
2018-09-27T06:22:26.600Z,15.20
2018-09-27T06:24:54.651Z,15.40
2018-09-27T06:27:22.975Z,15.27
2018-09-27T06:29:51.123Z,15.97
2018-09-27T06:32:19.258Z,17.37
2018-09-27T06:34:47.127Z,17.50
2018-09-27T06:37:17.451Z,17.73
2018-09-27T06:39:46.068Z,16.87
2018-09-27T06:42:14.267Z,18.43
2018-09-27T06:44:42.161Z,17.27
2018-09-27T06:47:10.100Z,18.03
2018-09-27T06:49:38.114Z,18.10
2018-09-27T06:52:06.264Z,18.93
2018-09-27T06:54:34.023Z,18.17
2018-09-27T06:57:01.706Z,18.33
2018-09-27T06:59:29.365Z,19.23
2018-09-27T07:01:56.992Z,18.83
2018-09-27T07:04:24.613Z,19.20
2018-09-27T07:06:52.364Z,17.63
2018-09-27T07:09:20.196Z,18.40
2018-09-27T07:11:47.966Z,18.07
2018-09-27T07:14:15.643Z,18.10
2018-09-27T07:16:43.391Z,17.60
2018-09-27T07:19:11.179Z,16.97
2018-09-27T07:21:38.822Z,17.47
2018-09-27T07:24:06.647Z,16.07
2018-09-27T07:26:34.191Z,15.97
2018-09-27T07:29:01.794Z,14.47
2018-09-27T07:31:29.451Z,14.60
2018-09-27T07:33:57.025Z,14.33
2018-09-27T07:36:25.401Z,12.50
2018-09-27T07:38:53.590Z,12.97
2018-09-27T07:41:21.710Z,11.80
2018-09-27T07:43:49.380Z,12.87
2018-09-27T07:46:17.208Z,12.43
2018-09-27T07:48:44.918Z,12.57
2018-09-27T07:51:12.810Z,12.00
2018-09-27T07:53:40.574Z,11.20
2018-09-27T07:56:08.420Z,11.97
2018-09-27T07:58:36.030Z,11.60
2018-09-27T08:01:03.793Z,11.25
2018-09-27T08:03:31.502Z,11.78
2018-09-27T08:05:59.334Z,11.10
2018-09-27T08:08:27.559Z,10.80
2018-09-27T08:10:55.258Z,11.05
2018-09-27T08:13:22.748Z,11.30
2018-09-27T08:15:50.845Z,11.12
2018-09-27T08:18:18.522Z,10.72
2018-09-27T08:20:46.780Z,10.80
2018-09-27T08:23:14.310Z,11.33
2018-09-27T08:25:41.831Z,11.08
2018-09-27T08:28:09.609Z,11.60
2018-09-27T08:30:38.190Z,11.40
2018-09-27T08:33:06.515Z,11.28
2018-09-27T08:35:34.324Z,10.25
2018-09-27T08:38:02.098Z,10.68
2018-09-27T08:40:29.847Z,10.25
2018-09-27T08:42:57.672Z,10.25
2018-09-27T08:45:25.950Z,11.40
2018-09-27T08:47:53.421Z,10.78
2018-09-27T08:50:21.126Z,10.72
2018-09-27T08:52:48.715Z,10.63
2018-09-27T08:55:16.436Z,10.60
2018-09-27T08:57:44.303Z,10.80
2018-09-27T09:00:12.122Z,11.63
2018-09-27T09:02:40.111Z,11.00
2018-09-27T09:05:08.695Z,10.80
2018-09-27T09:07:36.533Z,10.87
2018-09-27T09:10:04.855Z,10.67
2018-09-27T09:12:32.896Z,10.47
2018-09-27T09:15:00.861Z,10.50
2018-09-27T09:17:29.651Z,11.23
2018-09-27T09:19:57.749Z,11.33
2018-09-27T09:22:25.757Z,10.80
2018-09-27T09:24:53.679Z,10.10
2018-09-27T09:27:22.565Z,11.00
2018-09-27T09:29:51.475Z,10.90
2018-09-27T09:32:19.557Z,10.00
2018-09-27T09:34:47.567Z,9.33
2018-09-27T09:37:15.731Z,10.03
2018-09-27T09:39:44.067Z,10.80
2018-09-27T09:42:12.965Z,10.93
2018-09-27T09:44:41.058Z,9.70
2018-09-27T09:47:11.599Z,10.53
2018-09-27T09:49:39.632Z,11.07
2018-09-27T09:52:07.604Z,11.03
2018-09-27T09:54:35.572Z,11.10
2018-09-27T09:57:03.429Z,11.33
2018-09-27T09:59:31.133Z,12.27
2018-09-27T10:02:03.039Z,12.27
2018-09-27T10:04:30.669Z,12.30
2018-09-27T10:06:58.945Z,11.90
2018-09-27T10:09:27.331Z,12.83
2018-09-27T10:11:55.039Z,12.43
2018-09-27T10:14:24.360Z,12.83
2018-09-27T10:16:52.302Z,14.60
2018-09-27T10:19:20.122Z,13.87
2018-09-27T10:21:47.913Z,15.03
2018-09-27T10:24:16.368Z,14.63
2018-09-27T10:26:44.186Z,15.33
2018-09-27T10:29:12.042Z,14.73
2018-09-27T10:31:43.453Z,15.70
2018-09-27T10:34:11.992Z,14.93
2018-09-27T10:36:42.252Z,14.53
2018-09-27T10:39:12.092Z,14.30
2018-09-27T10:41:40.640Z,15.27
2018-09-27T11:08:59.771Z,13.70
2018-09-27T11:11:28.247Z,13.90
2018-09-27T11:13:57.516Z,13.83
2018-09-27T11:16:30.797Z,13.70
2018-09-27T11:18:59.441Z,12.37
2018-09-27T11:24:18.834Z,12.83
2018-09-27T11:26:50.076Z,13.80
2018-09-27T11:29:23.781Z,13.13
2018-09-27T11:32:28.699Z,13.33
2018-09-27T11:35:03.450Z,12.83
2018-09-27T11:37:47.368Z,12.33
2018-09-27T11:40:18.128Z,11.93
2018-09-27T11:42:48.652Z,12.13
2018-09-27T11:45:19.095Z,12.60
2018-09-27T11:47:50.112Z,11.47
2018-09-27T11:50:18.728Z,11.47
2018-09-27T11:52:46.579Z,12.23
2018-09-27T11:55:15.328Z,12.10
2018-09-27T11:57:45.946Z,11.07
2018-09-27T12:00:14.598Z,11.80
2018-09-27T12:02:42.500Z,12.07
2018-09-27T12:05:12.341Z,11.67
2018-09-27T12:07:39.969Z,11.23
2018-09-27T12:10:08.850Z,11.00
2018-09-27T12:12:37.594Z,11.67
2018-09-27T12:15:05.706Z,11.50
2018-09-27T12:17:33.498Z,11.33
2018-09-27T12:20:01.827Z,10.37
2018-09-27T12:22:29.436Z,10.63
2018-09-27T12:24:57.357Z,11.27
2018-09-27T12:27:24.858Z,10.73
2018-09-27T12:29:52.559Z,10.43
2018-09-27T12:32:20.812Z,11.17
2018-09-27T12:34:48.600Z,9.80
2018-09-27T12:37:16.504Z,10.13
2018-09-27T12:39:45.928Z,9.57
2018-09-27T12:42:13.882Z,10.57
2018-09-27T12:44:44.221Z,9.90
2018-09-27T12:47:12.243Z,10.03
2018-09-27T12:49:41.367Z,9.57
2018-09-27T12:52:09.790Z,10.57
2018-09-27T12:54:37.800Z,10.07
2018-09-27T12:57:05.960Z,8.97
2018-09-27T12:59:55.178Z,8.50
2018-09-27T13:02:23.661Z,9.27
2018-09-27T13:05:07.987Z,9.23
2018-09-27T13:07:44.833Z,9.30
2018-09-27T13:10:17.495Z,8.73
2018-09-27T13:12:47.374Z,9.13
2018-09-27T13:15:17.430Z,7.50
2018-09-27T13:17:47.037Z,7.60
2018-09-27T13:20:15.221Z,7.70
2018-09-27T13:22:47.886Z,7.23
2018-09-27T13:25:16.304Z,7.10
2018-09-27T13:27:44.597Z,7.07
2018-09-27T13:30:17.728Z,7.03
2018-09-27T13:32:47.488Z,7.30
2018-09-27T13:35:17.124Z,7.03
2018-09-27T13:37:48.585Z,7.03
2018-09-27T13:40:17.251Z,7.10
2018-09-27T13:42:48.060Z,6.97
2018-09-27T13:45:19.904Z,7.10
2018-09-27T13:47:50.056Z,7.70
2018-09-27T13:50:20.567Z,7.57
2018-09-27T13:52:49.266Z,7.53
2018-09-27T13:55:19.134Z,6.83
2018-09-27T13:57:47.406Z,7.30
2018-09-27T14:00:17.469Z,7.27
2018-09-27T14:02:47.412Z,7.47
2018-09-27T14:07:53.443Z,7.10
2018-09-27T14:10:22.000Z,6.50
2018-09-27T14:12:50.398Z,8.23
2018-09-27T14:15:18.006Z,8.03
2018-09-27T14:17:45.687Z,7.80
2018-09-27T14:20:13.163Z,8.17
2018-09-27T14:22:40.756Z,8.40
2018-09-27T14:25:08.612Z,8.50
2018-09-27T14:27:37.478Z,7.57
2018-09-27T14:30:08.230Z,7.33
2018-09-27T14:32:38.114Z,8.23
2018-09-27T14:35:11.124Z,7.63
2018-09-27T14:37:52.072Z,7.20
2018-09-27T14:40:29.758Z,7.40
2018-09-27T14:43:00.239Z,7.27
2018-09-27T14:45:40.277Z,8.00
2018-09-27T14:48:08.914Z,7.37
2018-09-27T14:50:38.028Z,7.00
2018-09-27T14:53:07.123Z,6.53
2018-09-27T14:55:36.164Z,6.47
2018-09-27T14:58:06.251Z,6.60
2018-09-27T15:00:39.561Z,7.03
2018-09-27T15:03:09.337Z,8.73
2018-09-27T15:05:38.568Z,7.50
2018-09-27T15:08:06.727Z,6.87
2018-09-27T15:10:36.617Z,6.63
2018-09-27T15:13:07.163Z,6.77
2018-09-27T15:15:37.965Z,6.07
2018-09-27T15:18:06.175Z,6.30
2018-09-27T15:20:34.989Z,6.47
2018-09-27T15:23:04.211Z,6.90
2018-09-27T15:25:32.326Z,7.03
2018-09-27T15:28:00.417Z,6.87
2018-09-27T15:30:30.054Z,6.70
2018-09-27T15:33:05.323Z,7.00
2018-09-27T15:35:40.092Z,6.73
2018-09-27T15:38:09.247Z,7.13
2018-09-27T15:40:43.908Z,6.83
2018-09-27T15:43:11.634Z,6.20
2018-09-27T15:45:39.752Z,6.73
2018-09-27T15:48:08.282Z,6.77
2018-09-27T15:50:36.192Z,6.83
2018-09-27T15:53:04.360Z,6.27
2018-09-27T15:55:33.226Z,6.90
2018-09-27T15:58:01.383Z,6.77
2018-09-27T16:00:29.197Z,6.47
2018-09-27T16:03:01.282Z,7.13
2018-09-27T16:19:19.665Z,6.03
2018-09-27T16:21:49.663Z,6.37
2018-09-27T16:24:18.669Z,5.53
2018-09-27T16:26:46.772Z,5.70
2018-09-27T16:29:15.659Z,5.40
2018-09-27T16:31:43.977Z,5.63
2018-09-27T16:34:12.013Z,5.73
2018-09-27T16:36:47.082Z,6.13
2018-09-27T16:39:17.845Z,5.80
2018-09-27T16:41:52.527Z,6.07
2018-09-27T16:44:44.656Z,5.83
2018-09-27T16:47:15.613Z,5.77
2018-09-27T16:49:43.601Z,6.30
2018-09-27T16:52:13.122Z,6.10
2018-09-27T16:54:42.813Z,5.87
2018-09-27T16:57:14.270Z,5.93
2018-09-27T16:59:42.471Z,5.30
2018-09-27T17:02:10.424Z,5.73
2018-09-27T17:04:38.539Z,6.00
2018-09-27T17:07:06.380Z,6.40
2018-09-27T17:09:34.524Z,5.70
2018-09-27T17:12:02.637Z,6.23
2018-09-27T17:14:31.173Z,6.07
2018-09-27T17:17:15.151Z,5.03
2018-09-27T17:19:43.196Z,5.97
2018-09-27T17:22:19.151Z,6.20
2018-09-27T17:27:22.940Z,6.40
2018-09-27T17:29:51.165Z,8.67
2018-09-27T17:32:20.510Z,6.63
2018-09-27T17:34:49.109Z,7.40
2018-09-27T17:37:36.168Z,6.27
2018-09-27T17:40:08.234Z,5.73
2018-09-27T17:42:37.827Z,5.83
2018-09-27T17:45:07.331Z,5.60
2018-09-27T20:09:34.387Z,7.03
2018-09-27T20:12:14.620Z,6.63
2018-09-27T20:17:49.841Z,7.77
2018-09-27T20:20:20.001Z,7.13
2018-09-27T20:22:49.778Z,7.40
2018-09-27T20:25:18.231Z,7.57
2018-09-27T20:27:47.393Z,7.47
2018-09-27T20:30:18.386Z,8.40
2018-09-27T20:32:46.999Z,9.00
2018-09-27T20:35:16.979Z,8.83
2018-09-27T20:37:45.355Z,9.90
2018-09-27T22:09:47.448Z,15.07
2018-09-27T22:12:16.237Z,15.10
2018-09-27T22:14:44.651Z,15.53
2018-09-27T22:17:12.500Z,14.70
2018-09-27T22:19:40.229Z,15.93
2018-09-27T22:22:08.198Z,16.43
2018-09-27T22:24:38.057Z,15.97
2018-09-27T22:27:07.318Z,16.07
2018-09-27T22:29:35.098Z,17.00
2018-09-27T22:32:03.033Z,16.60
2018-09-27T22:34:31.832Z,16.13
2018-09-27T22:36:59.661Z,17.30
2018-09-27T22:39:27.562Z,15.73
2018-09-27T22:41:55.346Z,17.03
2018-09-27T22:44:23.122Z,17.80
2018-09-27T22:46:50.705Z,17.33
2018-09-27T22:49:20.345Z,17.10
2018-09-27T22:51:48.221Z,18.00
2018-09-27T22:54:18.033Z,17.73
2018-09-27T22:56:45.887Z,18.07
2018-09-27T22:59:15.142Z,19.03
2018-09-27T23:01:42.834Z,19.17
2018-09-27T23:04:10.577Z,19.70
2018-09-27T23:06:40.377Z,19.77
2018-09-27T23:09:08.396Z,21.17
2018-09-27T23:11:35.956Z,22.27
2018-09-27T23:14:05.674Z,22.30
2018-09-27T23:16:33.315Z,25.23
2018-09-27T23:19:01.521Z,24.53
2018-09-27T23:21:30.569Z,25.43
2018-09-27T23:23:58.369Z,25.27
2018-09-27T23:26:26.643Z,24.83
2018-09-27T23:28:54.730Z,27.17
2018-09-27T23:31:22.440Z,28.30
2018-09-27T23:33:50.214Z,27.60
2018-09-27T23:36:18.001Z,29.23
2018-09-27T23:38:45.735Z,28.73
2018-09-27T23:41:14.388Z,30.13
2018-09-27T23:43:45.056Z,29.40
2018-09-27T23:46:13.335Z,30.03
2018-09-27T23:48:41.279Z,29.13
2018-09-27T23:51:08.869Z,26.07
2018-09-27T23:53:36.748Z,23.67
2018-09-27T23:56:16.964Z,19.13
2018-09-27T23:58:46.158Z,20.37
